createdAt,value
2022-12-14T00:01:20.338Z,24.47
2022-12-14T00:03:47.704Z,20.57
2022-12-14T00:06:22.311Z,16.27
2022-12-14T00:08:51.227Z,21.47
2022-12-14T00:11:19.786Z,15.57
2022-12-14T00:13:49.035Z,16.07
2022-12-14T00:16:17.606Z,18.80
2022-12-14T00:18:45.582Z,17.47
2022-12-14T00:21:14.060Z,17.20
2022-12-14T00:23:42.349Z,18.40
2022-12-14T00:26:16.521Z,15.70
2022-12-14T00:28:44.013Z,14.27
2022-12-14T00:31:11.537Z,12.47
2022-12-14T00:33:39.222Z,16.93
2022-12-14T00:36:07.655Z,10.20
2022-12-14T00:38:34.922Z,13.47
2022-12-14T00:41:02.022Z,11.00
2022-12-14T00:43:29.119Z,10.60
2022-12-14T00:45:56.285Z,10.03
2022-12-14T00:48:23.805Z,9.57
2022-12-14T00:50:51.705Z,10.00
2022-12-14T00:53:20.127Z,10.27
2022-12-14T00:55:49.471Z,8.90
2022-12-14T00:58:17.882Z,7.90
2022-12-14T01:00:44.931Z,10.70
2022-12-14T01:03:12.989Z,10.00
2022-12-14T01:05:40.374Z,6.77
2022-12-14T01:08:07.977Z,11.27
2022-12-14T01:10:35.483Z,9.43
2022-12-14T01:13:02.561Z,9.17
2022-12-14T01:15:29.658Z,7.27
2022-12-14T01:17:56.715Z,7.63
2022-12-14T01:20:23.786Z,8.10
2022-12-14T01:22:55.237Z,9.63
2022-12-14T01:25:22.457Z,8.67
2022-12-14T01:27:49.650Z,9.63
2022-12-14T01:30:18.213Z,7.77
2022-12-14T01:32:45.414Z,9.40
2022-12-14T01:35:12.570Z,9.53
2022-12-14T01:37:39.621Z,7.83
2022-12-14T01:40:06.983Z,6.60
2022-12-14T01:42:35.803Z,9.10
2022-12-14T01:45:02.867Z,8.57
2022-12-14T01:47:35.040Z,9.20
2022-12-14T01:50:08.374Z,7.63
2022-12-14T01:52:38.522Z,9.30
2022-12-14T01:55:05.540Z,8.00
2022-12-14T01:57:35.369Z,10.27
2022-12-14T02:00:07.168Z,10.70
2022-12-14T02:02:35.707Z,11.13
2022-12-14T02:05:03.371Z,9.77
2022-12-14T02:07:31.330Z,10.90
2022-12-14T02:10:01.991Z,11.03
2022-12-14T02:12:31.284Z,7.13
2022-12-14T02:14:58.714Z,8.53
2022-12-14T02:17:25.782Z,15.27
2022-12-14T02:19:52.919Z,10.13
2022-12-14T02:22:25.880Z,12.70
2022-12-14T02:24:53.018Z,7.70
2022-12-14T02:27:23.082Z,7.73
2022-12-14T02:29:52.973Z,11.60
2022-12-14T02:32:22.794Z,10.93
2022-12-14T02:34:52.680Z,12.07
2022-12-14T02:37:22.464Z,9.57
2022-12-14T02:39:49.485Z,10.33
2022-12-14T02:42:22.113Z,10.03
2022-12-14T02:44:52.878Z,10.10
2022-12-14T02:47:41.617Z,10.60
2022-12-14T02:50:19.917Z,12.17
2022-12-14T02:52:52.978Z,8.97
2022-12-14T02:55:25.731Z,8.73
2022-12-14T02:58:03.791Z,10.33
2022-12-14T03:00:32.233Z,9.80
2022-12-14T03:03:00.334Z,8.47
2022-12-14T03:05:27.433Z,7.63
2022-12-14T03:07:59.702Z,8.23
2022-12-14T03:10:45.607Z,8.37
2022-12-14T03:13:28.229Z,7.33
2022-12-14T03:15:58.753Z,8.43
2022-12-14T03:18:27.766Z,10.97
2022-12-14T03:20:56.118Z,8.33
2022-12-14T03:23:25.283Z,5.47
2022-12-14T03:25:55.966Z,8.37
2022-12-14T03:28:27.320Z,15.63
2022-12-14T03:31:00.611Z,8.33
2022-12-14T03:33:28.878Z,10.47
2022-12-14T03:35:59.072Z,10.07
2022-12-14T03:38:32.680Z,8.70
2022-12-14T03:41:08.932Z,10.30
2022-12-14T03:43:43.147Z,8.50
2022-12-14T03:46:23.950Z,9.03
2022-12-14T03:48:52.039Z,10.47
2022-12-14T03:51:25.067Z,10.67
2022-12-14T03:54:12.340Z,8.40
2022-12-14T03:56:45.284Z,7.30
2022-12-14T03:59:25.792Z,9.93
2022-12-14T04:02:05.804Z,9.87
2022-12-14T04:04:49.916Z,9.30
2022-12-14T04:07:29.197Z,12.97
2022-12-14T04:10:35.147Z,10.17
2022-12-14T04:13:31.917Z,10.80
2022-12-14T04:16:20.340Z,10.00
2022-12-14T04:19:00.466Z,8.90
2022-12-14T04:21:33.801Z,9.33
2022-12-14T04:24:21.569Z,9.73
2022-12-14T04:27:00.046Z,8.67
2022-12-14T04:29:47.926Z,11.10
2022-12-14T04:32:20.828Z,8.37
2022-12-14T04:34:51.003Z,7.43
2022-12-14T04:37:20.308Z,9.93
2022-12-14T04:39:53.608Z,10.67
2022-12-14T04:42:23.670Z,8.97
2022-12-14T04:44:52.841Z,12.10
2022-12-14T04:47:20.497Z,9.07
2022-12-14T04:50:08.223Z,10.03
2022-12-14T04:52:39.275Z,8.73
2022-12-14T04:55:12.076Z,10.33
2022-12-14T04:57:54.227Z,10.37
2022-12-14T05:00:21.354Z,10.77
2022-12-14T05:02:48.456Z,12.53
2022-12-14T05:05:18.414Z,10.07
2022-12-14T05:07:51.265Z,9.90
2022-12-14T05:10:20.618Z,9.30
2022-12-14T05:12:53.602Z,10.17
2022-12-14T05:15:23.346Z,10.20
2022-12-14T05:17:50.564Z,9.97
2022-12-14T05:20:21.333Z,9.73
2022-12-14T05:22:49.566Z,7.90
2022-12-14T05:25:17.048Z,9.83
2022-12-14T05:27:44.246Z,10.80
2022-12-14T05:30:11.728Z,8.27
2022-12-14T05:32:39.764Z,10.77
2022-12-14T05:35:07.219Z,8.23
2022-12-14T05:37:34.292Z,9.23
2022-12-14T05:40:01.892Z,11.37
2022-12-14T05:42:28.961Z,8.80
2022-12-14T05:44:56.061Z,10.63
2022-12-14T05:47:23.193Z,10.43
2022-12-14T05:49:50.368Z,11.03
2022-12-14T05:52:17.793Z,10.70
2022-12-14T05:54:44.862Z,9.77
2022-12-14T05:57:12.896Z,9.07
2022-12-14T05:59:39.944Z,5.30
2022-12-14T06:02:07.092Z,7.60
2022-12-14T06:04:34.302Z,7.97
2022-12-14T06:07:01.424Z,6.53
2022-12-14T06:09:28.480Z,12.00
2022-12-14T06:11:55.592Z,9.37
2022-12-14T06:14:24.340Z,7.93
2022-12-14T06:16:51.416Z,7.73
2022-12-14T06:19:18.960Z,8.33
2022-12-14T06:21:46.026Z,9.70
2022-12-14T06:24:13.716Z,8.87
2022-12-14T06:26:41.155Z,9.13
2022-12-14T06:29:08.956Z,9.07
2022-12-14T06:31:36.438Z,10.57
2022-12-14T06:34:04.037Z,9.50
2022-12-14T06:36:35.540Z,10.37
2022-12-14T06:39:04.789Z,8.70
2022-12-14T06:41:32.149Z,8.83
2022-12-14T06:44:05.458Z,9.20
2022-12-14T06:46:32.647Z,14.53
2022-12-14T06:48:59.817Z,8.70
2022-12-14T06:51:26.965Z,9.23
2022-12-14T06:53:54.838Z,14.40
2022-12-14T06:56:22.311Z,9.13
2022-12-14T06:58:49.597Z,11.77
2022-12-14T07:01:17.972Z,7.70
2022-12-14T07:03:48.402Z,10.27
2022-12-14T07:06:15.547Z,9.90
2022-12-14T07:08:42.730Z,7.87
2022-12-14T07:11:11.656Z,10.63
2022-12-14T07:13:39.291Z,9.20
2022-12-14T07:16:07.256Z,9.27
2022-12-14T07:18:34.746Z,8.63
2022-12-14T07:21:02.898Z,10.03
2022-12-14T07:23:31.505Z,10.37
2022-12-14T07:26:06.093Z,11.43
2022-12-14T07:28:33.708Z,9.27
2022-12-14T07:31:01.545Z,10.50
2022-12-14T07:33:29.318Z,7.77
2022-12-14T07:36:03.796Z,10.83
2022-12-14T07:38:30.956Z,9.67
2022-12-14T07:41:05.278Z,11.57
2022-12-14T07:43:32.545Z,9.80
2022-12-14T07:46:01.275Z,7.77
2022-12-14T07:48:28.484Z,9.83
2022-12-14T07:50:55.620Z,8.17
2022-12-14T07:53:22.671Z,7.63
2022-12-14T07:55:50.491Z,14.03
2022-12-14T07:58:17.552Z,11.07
2022-12-14T08:00:44.920Z,11.07
2022-12-14T08:03:12.063Z,12.03
2022-12-14T08:05:39.816Z,10.30
2022-12-14T08:08:07.122Z,11.80
2022-12-14T08:10:40.199Z,9.37
2022-12-14T08:13:07.583Z,10.00
2022-12-14T08:15:37.547Z,13.17
2022-12-14T08:18:04.719Z,11.87
2022-12-14T08:20:32.143Z,11.07
2022-12-14T08:22:59.233Z,7.80
2022-12-14T08:25:26.280Z,9.23
2022-12-14T08:27:53.353Z,9.80
2022-12-14T08:30:20.479Z,7.83
2022-12-14T08:32:47.516Z,9.70
2022-12-14T08:35:16.457Z,10.23
2022-12-14T08:37:47.488Z,9.73
2022-12-14T08:40:14.921Z,12.77
2022-12-14T08:42:41.953Z,12.00
2022-12-14T08:45:09.179Z,11.37
2022-12-14T08:47:36.294Z,10.07
2022-12-14T08:50:03.354Z,9.63
2022-12-14T08:52:30.426Z,10.80
2022-12-14T08:54:58.593Z,10.23
2022-12-14T08:57:25.690Z,9.37
2022-12-14T09:00:01.294Z,11.20
2022-12-14T09:02:29.354Z,7.37
2022-12-14T09:04:56.483Z,10.73
2022-12-14T09:07:23.637Z,14.07
2022-12-14T09:09:50.707Z,9.70
2022-12-14T09:12:17.798Z,12.13
2022-12-14T09:14:46.596Z,8.60
2022-12-14T09:17:16.852Z,11.40
2022-12-14T09:19:43.917Z,8.13
2022-12-14T09:22:11.243Z,9.80
2022-12-14T09:24:38.348Z,9.00
2022-12-14T09:27:05.452Z,10.53
2022-12-14T09:29:32.674Z,10.30
2022-12-14T09:31:59.847Z,11.40
2022-12-14T09:34:26.931Z,10.50
2022-12-14T09:36:54.079Z,10.97
2022-12-14T09:39:21.175Z,13.90
2022-12-14T09:42:00.846Z,12.37
2022-12-14T09:44:52.952Z,15.43
2022-12-14T09:47:22.020Z,7.70
2022-12-14T09:49:59.489Z,16.03
2022-12-14T09:52:26.589Z,10.13
2022-12-14T09:54:54.347Z,10.50
2022-12-14T09:57:22.120Z,12.10
2022-12-14T09:59:49.237Z,12.80
2022-12-14T10:02:33.801Z,10.27
2022-12-14T10:05:06.432Z,13.63
2022-12-14T10:07:39.277Z,11.97
2022-12-14T10:10:25.081Z,8.07
2022-12-14T10:12:55.213Z,16.23
2022-12-14T10:15:43.317Z,13.23
2022-12-14T10:18:41.380Z,10.07
2022-12-14T10:21:12.695Z,10.70
2022-12-14T10:23:42.362Z,13.13
2022-12-14T10:26:12.861Z,15.20
2022-12-14T10:28:45.922Z,13.47
2022-12-14T10:31:16.251Z,13.33
2022-12-14T10:33:45.030Z,10.07
2022-12-14T10:36:15.086Z,11.73
2022-12-14T10:38:53.083Z,17.10
2022-12-14T10:41:42.367Z,12.87
2022-12-14T10:44:23.605Z,11.43
2022-12-14T10:47:09.312Z,13.63
2022-12-14T10:49:40.015Z,14.00
2022-12-14T10:52:27.370Z,13.67
2022-12-14T10:54:59.444Z,9.63
2022-12-14T10:57:27.716Z,13.37
2022-12-14T11:00:10.922Z,14.30
2022-12-14T11:02:42.074Z,7.07
2022-12-14T11:05:36.357Z,10.70
2022-12-14T11:08:07.890Z,13.70
2022-12-14T11:10:41.584Z,13.20
2022-12-14T11:13:17.213Z,8.03
2022-12-14T11:15:45.543Z,12.60
2022-12-14T11:18:12.697Z,11.57
2022-12-14T11:20:59.869Z,12.60
2022-12-14T11:23:26.908Z,14.30
2022-12-14T11:26:01.422Z,16.07
2022-12-14T11:28:36.027Z,14.83
2022-12-14T11:31:08.755Z,12.73
2022-12-14T11:33:40.250Z,14.03
2022-12-14T11:36:08.408Z,13.13
2022-12-14T11:38:35.731Z,11.00
2022-12-14T11:41:10.662Z,13.87
2022-12-14T11:43:38.927Z,11.00
2022-12-14T11:46:06.154Z,15.27
2022-12-14T11:48:38.337Z,13.63
2022-12-14T11:51:10.919Z,13.17
2022-12-14T11:53:38.057Z,14.47
2022-12-14T11:56:07.562Z,18.83
2022-12-14T11:58:36.395Z,12.83
2022-12-14T12:01:05.645Z,15.20
2022-12-14T12:03:41.438Z,17.23
2022-12-14T12:06:11.054Z,22.33
2022-12-14T12:08:39.655Z,13.27
2022-12-14T12:11:15.267Z,10.77
2022-12-14T12:13:44.935Z,13.43
2022-12-14T12:16:16.451Z,13.07
2022-12-14T12:18:46.534Z,16.90
2022-12-14T12:21:30.376Z,13.50
2022-12-14T12:24:16.699Z,14.70
2022-12-14T12:26:50.038Z,12.17
2022-12-14T12:29:24.130Z,12.77
2022-12-14T12:32:06.290Z,13.57
2022-12-14T12:34:44.880Z,16.17
2022-12-14T12:37:26.258Z,15.27
2022-12-14T12:39:57.889Z,14.23
2022-12-14T12:42:45.961Z,15.00
2022-12-14T12:45:16.153Z,14.30
2022-12-14T12:47:50.336Z,18.53
2022-12-14T12:50:18.907Z,14.83
2022-12-14T12:52:51.919Z,14.40
2022-12-14T12:55:20.065Z,14.97
2022-12-14T12:57:49.435Z,14.47
2022-12-14T13:00:21.426Z,19.00
2022-12-14T13:02:51.863Z,15.53
2022-12-14T13:05:45.827Z,15.23
2022-12-14T13:08:19.781Z,16.37
2022-12-14T13:11:17.336Z,14.30
2022-12-14T13:13:35.875Z,12.93
2022-12-14T13:16:21.451Z,11.77
2022-12-14T13:19:05.005Z,14.17
2022-12-14T13:21:44.690Z,20.97
2022-12-14T13:24:18.040Z,19.03
2022-12-14T13:26:58.599Z,16.57
2022-12-14T13:29:38.194Z,19.73
2022-12-14T13:32:17.195Z,18.80
2022-12-14T13:35:03.948Z,21.80
2022-12-14T13:37:43.564Z,18.47
2022-12-14T13:40:16.554Z,20.33
2022-12-14T13:42:52.013Z,19.00
2022-12-14T13:45:21.117Z,22.70
2022-12-14T13:47:52.203Z,16.97
2022-12-14T13:50:40.848Z,15.73
2022-12-14T13:53:19.166Z,16.00
2022-12-14T13:56:04.969Z,19.60
2022-12-14T13:58:32.369Z,23.23
2022-12-14T14:00:59.709Z,17.87
2022-12-14T14:03:36.084Z,19.00
2022-12-14T14:06:09.182Z,17.53
2022-12-14T14:08:41.813Z,20.30
2022-12-14T14:11:36.946Z,18.50
2022-12-14T14:14:12.505Z,20.83
2022-12-14T14:16:43.645Z,16.73
2022-12-14T14:19:11.281Z,20.03
2022-12-14T14:22:06.163Z,20.93
2022-12-14T14:24:28.766Z,19.47
2022-12-14T14:27:11.313Z,18.60
2022-12-14T14:29:45.066Z,15.37
2022-12-14T14:32:31.455Z,20.20
2022-12-14T14:34:58.612Z,19.20
2022-12-14T14:37:27.988Z,18.00
2022-12-14T14:40:04.900Z,17.43
2022-12-14T14:42:42.369Z,16.23
2022-12-14T14:45:22.496Z,16.10
2022-12-14T14:47:55.464Z,15.67
2022-12-14T14:50:24.315Z,19.03
2022-12-14T14:52:59.190Z,18.57
2022-12-14T14:58:26.887Z,16.10
2022-12-14T15:01:12.923Z,18.40
2022-12-14T15:03:46.105Z,17.70
2022-12-14T15:06:15.570Z,19.93
2022-12-14T15:08:45.272Z,16.20
2022-12-14T15:11:16.717Z,15.07
2022-12-14T15:13:46.213Z,16.83
2022-12-14T15:16:29.765Z,22.20
2022-12-14T15:19:14.024Z,19.83
2022-12-14T15:21:41.162Z,19.40
2022-12-14T15:24:14.290Z,20.60
2022-12-14T15:26:41.369Z,16.70
2022-12-14T15:29:15.360Z,22.53
2022-12-14T15:31:43.880Z,16.97
2022-12-14T15:34:18.140Z,22.30
2022-12-14T15:36:45.515Z,19.77
2022-12-14T15:39:32.585Z,21.03
2022-12-14T15:42:27.067Z,17.23
2022-12-14T15:44:55.967Z,20.37
2022-12-14T15:47:24.356Z,21.47
2022-12-14T15:49:57.568Z,22.50
2022-12-14T15:52:30.847Z,20.10
2022-12-14T15:54:59.180Z,16.93
2022-12-14T15:57:26.299Z,21.03
2022-12-14T15:59:55.205Z,20.53
2022-12-14T16:02:30.279Z,17.23
2022-12-14T16:04:58.685Z,18.57
2022-12-14T16:07:38.424Z,20.57
2022-12-14T16:10:15.447Z,26.17
2022-12-14T16:12:45.411Z,22.43
2022-12-14T16:15:20.606Z,23.20
2022-12-14T16:17:47.816Z,21.83
2022-12-14T16:20:16.171Z,18.40
2022-12-14T16:22:57.288Z,18.50
2022-12-14T16:25:24.474Z,21.23
2022-12-14T16:27:52.539Z,20.97
2022-12-14T16:30:24.461Z,23.13
2022-12-14T16:33:10.145Z,19.17
2022-12-14T16:35:38.183Z,23.03
2022-12-14T16:38:11.425Z,23.07
2022-12-14T16:40:39.978Z,21.90
2022-12-14T16:43:08.129Z,25.87
2022-12-14T16:45:46.142Z,28.27
2022-12-14T16:48:22.983Z,20.23
2022-12-14T16:51:01.319Z,26.33
2022-12-14T16:53:35.211Z,28.73
2022-12-14T16:56:05.677Z,20.97
2022-12-14T16:58:33.615Z,20.77
2022-12-14T17:01:02.445Z,24.50
2022-12-14T17:03:30.592Z,23.23
2022-12-14T17:06:00.299Z,26.23
2022-12-14T17:08:27.520Z,28.33
2022-12-14T17:10:54.995Z,20.30
2022-12-14T17:13:22.080Z,26.80
2022-12-14T17:16:06.069Z,21.93
2022-12-14T17:18:34.831Z,24.40
2022-12-14T17:21:02.285Z,31.20
2022-12-14T17:23:29.893Z,26.77
2022-12-14T17:25:57.283Z,27.23
2022-12-14T17:28:27.093Z,24.50
2022-12-14T17:30:57.185Z,28.13
2022-12-14T17:33:28.561Z,22.27
2022-12-14T17:35:56.592Z,24.53
2022-12-14T17:38:23.751Z,28.30
2022-12-14T17:40:51.632Z,28.47
2022-12-14T17:43:20.704Z,26.70
2022-12-14T17:45:47.799Z,22.10
2022-12-14T17:48:15.731Z,22.57
2022-12-14T17:50:44.390Z,27.73
2022-12-14T17:53:15.435Z,21.30
2022-12-14T17:55:42.499Z,25.33
2022-12-14T17:58:12.848Z,29.13
2022-12-14T18:00:59.366Z,33.70
2022-12-14T18:03:26.598Z,21.30
2022-12-14T18:05:53.897Z,28.60
2022-12-14T18:08:22.107Z,27.43
2022-12-14T18:10:54.046Z,23.30
2022-12-14T18:13:21.209Z,24.57
2022-12-14T18:15:50.531Z,21.73
2022-12-14T18:18:21.339Z,23.90
2022-12-14T18:20:50.891Z,24.47
2022-12-14T18:23:19.090Z,30.27
2022-12-14T18:25:47.876Z,27.17
2022-12-14T18:28:15.398Z,33.37
2022-12-14T18:30:49.436Z,22.67
2022-12-14T18:33:21.785Z,26.40
2022-12-14T18:35:49.976Z,22.40
2022-12-14T18:38:17.313Z,24.33
2022-12-14T18:40:46.124Z,26.17
2022-12-14T18:43:18.573Z,29.50
2022-12-14T18:45:45.717Z,31.87
2022-12-14T18:48:12.919Z,23.67
2022-12-14T18:50:43.171Z,26.00
2022-12-14T18:53:14.970Z,31.10
2022-12-14T18:55:42.133Z,29.47
2022-12-14T18:58:14.731Z,24.03
2022-12-14T19:00:41.858Z,25.00
2022-12-14T19:03:09.030Z,31.97
2022-12-14T19:05:36.280Z,40.83
2022-12-14T19:08:03.844Z,39.00
2022-12-14T19:10:32.449Z,40.07
2022-12-14T19:13:00.006Z,39.03
2022-12-14T19:15:29.120Z,46.90
2022-12-14T19:17:56.604Z,45.37
2022-12-14T19:20:24.476Z,37.37
2022-12-14T19:22:51.577Z,35.13
2022-12-14T19:25:19.726Z,28.63
2022-12-14T19:30:34.653Z,28.20
2022-12-14T19:33:01.883Z,33.47
2022-12-14T19:35:29.041Z,30.10
2022-12-14T19:37:56.100Z,35.97
2022-12-14T19:40:23.297Z,30.40
2022-12-14T19:42:50.549Z,30.97
2022-12-14T19:45:17.707Z,27.87
2022-12-14T19:47:44.834Z,31.27
2022-12-14T19:50:13.347Z,29.97
2022-12-14T19:52:40.409Z,29.73
2022-12-14T19:55:07.573Z,27.33
2022-12-14T19:57:34.857Z,28.17
2022-12-14T20:00:02.510Z,30.17
2022-12-14T20:02:29.934Z,32.63
2022-12-14T20:04:57.149Z,26.77
2022-12-14T20:07:24.291Z,30.73
2022-12-14T20:09:51.341Z,27.87
2022-12-14T20:12:18.441Z,28.87
2022-12-14T20:14:45.480Z,34.63
2022-12-14T20:17:16.567Z,32.83
2022-12-14T20:19:43.723Z,29.57
2022-12-14T20:22:11.268Z,31.80
2022-12-14T20:24:38.314Z,28.37
2022-12-14T20:27:05.461Z,32.00
2022-12-14T20:29:32.947Z,24.43
2022-12-14T20:32:00.094Z,34.13
2022-12-14T20:34:28.952Z,34.07
2022-12-14T20:36:56.010Z,27.03
2022-12-14T20:39:23.137Z,19.97
2022-12-14T20:41:50.226Z,23.60
2022-12-14T20:44:17.330Z,26.97
2022-12-14T20:46:47.357Z,25.77
2022-12-14T20:49:16.500Z,23.90
2022-12-14T20:51:44.450Z,26.63
2022-12-14T20:54:12.631Z,20.67
2022-12-14T20:56:39.839Z,27.20
2022-12-14T20:59:07.820Z,28.70
2022-12-14T21:01:36.182Z,25.83
2022-12-14T21:04:03.706Z,24.93
2022-12-14T21:06:32.916Z,31.70
2022-12-14T21:09:09.420Z,27.90
2022-12-14T21:11:56.731Z,25.67
2022-12-14T21:14:24.788Z,21.93
2022-12-14T21:16:52.076Z,30.43
2022-12-14T21:19:19.542Z,31.83
2022-12-14T21:21:53.024Z,26.70
2022-12-14T21:24:44.781Z,27.07
2022-12-14T21:27:09.213Z,29.37
2022-12-14T21:29:36.309Z,29.93
2022-12-14T21:32:04.304Z,28.40
2022-12-14T21:34:31.932Z,23.40
2022-12-14T21:36:59.257Z,32.93
2022-12-14T21:39:26.367Z,24.50
2022-12-14T21:42:12.226Z,29.60
2022-12-14T21:44:49.468Z,32.10
2022-12-14T21:47:17.657Z,24.90
2022-12-14T21:49:45.432Z,22.33
2022-12-14T21:52:14.019Z,29.70
2022-12-14T21:54:41.908Z,24.70
2022-12-14T21:57:31.451Z,30.40
2022-12-14T21:59:58.597Z,25.27
2022-12-14T22:02:26.484Z,24.00
2022-12-14T22:04:56.091Z,24.43
2022-12-14T22:07:24.414Z,20.47
2022-12-14T22:09:51.759Z,20.33
2022-12-14T22:12:18.883Z,25.20
2022-12-14T22:14:45.960Z,28.43
2022-12-14T22:17:14.547Z,31.80
2022-12-14T22:19:41.681Z,21.30
2022-12-14T22:22:13.082Z,33.90
2022-12-14T22:24:40.809Z,31.33
2022-12-14T22:27:07.948Z,27.33
2022-12-14T22:29:35.109Z,27.70
2022-12-14T22:32:02.662Z,21.63
2022-12-14T22:34:29.885Z,23.80
2022-12-14T22:36:57.023Z,25.10
2022-12-14T22:39:24.131Z,24.53
2022-12-14T22:41:51.280Z,26.60
2022-12-14T22:44:18.478Z,27.90
2022-12-14T22:46:45.657Z,33.37
2022-12-14T22:49:16.581Z,25.03
2022-12-14T22:51:43.785Z,28.87
2022-12-14T22:54:16.240Z,22.93
2022-12-14T22:56:46.395Z,29.50
2022-12-14T22:59:18.068Z,23.43
2022-12-14T23:01:49.663Z,33.10
2022-12-14T23:04:17.823Z,26.77
2022-12-14T23:06:45.617Z,32.47
2022-12-14T23:09:31.388Z,25.57
2022-12-14T23:12:21.500Z,25.13
2022-12-14T23:15:08.278Z,22.00
2022-12-14T23:17:54.844Z,32.10
2022-12-14T23:20:40.597Z,32.13
2022-12-14T23:23:27.436Z,31.63
2022-12-14T23:26:13.771Z,27.80
2022-12-14T23:28:59.747Z,28.70
2022-12-14T23:31:45.674Z,24.20
2022-12-14T23:34:31.550Z,25.90
2022-12-14T23:37:20.357Z,31.97
2022-12-14T23:40:06.543Z,30.50
2022-12-14T23:42:52.347Z,23.43
2022-12-14T23:45:38.263Z,29.97
2022-12-14T23:48:23.980Z,26.83
2022-12-14T23:51:10.179Z,23.80
2022-12-14T23:53:56.349Z,24.93
2022-12-14T23:56:41.959Z,25.30
2022-12-14T23:59:32.340Z,27.77
